Time;durP1;ratioP1;P1;durP2;ratioP2;P2;SDS_P1;SDS_P2;PMS_P1;PMS_P2;Temp;Humidity;BMP_temperature;BMP_pressure;BME280_temperature;BME280_humidity;BME280_pressure;Samples;Min_cycle;Max_cycle;Signal;HPM_P1;HPM_P2
2023/12/27 00:00:54;;;;;;;11.80;3.08;;;;;;;;;;5071115;28;20090;-84
2023/12/27 00:03:55;;;;;;;16.52;3.25;;;;;;;;;;5071085;28;20039;-84
2023/12/27 00:07:06;;;;;;;15.77;2.90;;;;;;;;;;5070674;28;20053;-84
2023/12/27 00:10:05;;;;;;;16.98;3.38;;;;;;;;;;5063050;28;20165;-83
2023/12/27 00:16:40;;;;;;;10.38;2.65;;;;;;;;;;5065840;28;20578;-83
2023/12/27 00:22:37;;;;;;;17.05;3.55;;;;;;;;;;5054890;28;20405;-84
2023/12/27 00:26:00;;;;;;;16.30;4.13;;;;;;;;;;5062620;28;20047;-83
2023/12/27 00:29:13;;;;;;;14.75;4.95;;;;;;;;;;5053429;28;20111;-83
2023/12/27 00:32:19;;;;;;;5.75;2.08;;;;;;;;;;5041854;28;20042;-83
2023/12/27 00:35:09;;;;;;;9.90;3.67;;;;;;;;;;5037732;28;20044;-84
2023/12/27 00:38:02;;;;;;;17.50;3.05;;;;;;;;;;5072207;28;20071;-83
2023/12/27 00:44:16;;;;;;;12.80;3.15;;;;;;;;;;5065613;28;20039;-83
2023/12/27 00:47:09;;;;;;;12.55;3.53;;;;;;;;;;5061514;28;20040;-84
2023/12/27 00:50:13;;;;;;;12.70;3.03;;;;;;;;;;5049745;28;20048;-84
2023/12/27 00:53:03;;;;;;;18.52;3.38;;;;;;;;;;5065857;28;20056;-84
2023/12/27 01:02:35;;;;;;;9.20;4.75;;;;;;;;;;5060409;28;20055;-84
2023/12/27 01:05:20;;;;;;;23.45;5.57;;;;;;;;;;5047158;28;20063;-84
2023/12/27 01:11:58;;;;;;;12.15;2.97;;;;;;;;;;5064042;28;20063;-83
2023/12/27 01:14:51;;;;;;;13.07;3.25;;;;;;;;;;5059352;28;20047;-84
2023/12/27 01:18:24;;;;;;;18.27;3.35;;;;;;;;;;5058549;28;20035;-83
2023/12/27 01:21:28;;;;;;;14.20;2.45;;;;;;;;;;5057735;28;20071;-83
2023/12/27 01:24:17;;;;;;;14.88;2.97;;;;;;;;;;5032142;28;20558;-83
2023/12/27 01:27:05;;;;;;;12.73;2.95;;;;;;;;;;5068098;28;20122;-83
2023/12/27 01:29:57;;;;;;;17.45;2.80;;;;;;;;;;5077498;28;20070;-84
2023/12/27 01:33:01;;;;;;;13.95;2.90;;;;;;;;;;5045161;28;20043;-85
2023/12/27 01:35:59;;;;;;;10.70;2.50;;;;;;;;;;5056103;28;20098;-84
2023/12/27 01:39:22;;;;;;;15.02;2.83;;;;;;;;;;5071423;28;20090;-83
2023/12/27 01:42:19;;;;;;;14.15;3.47;;;;;;;;;;5071557;28;20492;-83
2023/12/27 01:45:13;;;;;;;14.60;2.60;;;;;;;;;;5070866;28;20071;-83
2023/12/27 01:52:10;;;;;;;13.20;3.15;;;;;;;;;;5060222;28;20043;-84
2023/12/27 01:54:57;;;;;;;10.35;2.70;;;;;;;;;;5009322;28;20072;-84
2023/12/27 01:58:03;;;;;;;13.05;2.83;;;;;;;;;;4967858;28;20073;-84
2023/12/27 02:01:11;;;;;;;9.25;2.60;;;;;;;;;;4931301;29;20107;-84
2023/12/27 02:04:17;;;;;;;11.15;2.63;;;;;;;;;;4961619;28;20049;-83
2023/12/27 02:07:15;;;;;;;12.63;3.20;;;;;;;;;;5004877;28;20045;-83
2023/12/27 02:10:14;;;;;;;10.30;3.65;;;;;;;;;;5008305;28;20072;-83
2023/12/27 02:13:14;;;;;;;30.55;5.40;;;;;;;;;;5008740;28;20041;-84
2023/12/27 02:22:35;;;;;;;8.68;2.97;;;;;;;;;;5009615;28;20079;-84
2023/12/27 02:25:39;;;;;;;15.30;3.15;;;;;;;;;;4997150;28;20045;-84
2023/12/27 02:28:39;;;;;;;9.45;2.67;;;;;;;;;;4994954;28;20057;-84
2023/12/27 02:31:36;;;;;;;7.07;3.10;;;;;;;;;;5030679;28;20128;-83
2023/12/27 02:34:41;;;;;;;10.85;2.80;;;;;;;;;;5033948;28;20102;-83
2023/12/27 02:38:15;;;;;;;14.63;3.20;;;;;;;;;;5055132;28;20063;-83
2023/12/27 02:47:55;;;;;;;9.85;2.80;;;;;;;;;;5064050;28;20055;-83
2023/12/27 02:50:44;;;;;;;13.23;3.13;;;;;;;;;;5067994;28;20123;-83
2023/12/27 02:53:32;;;;;;;18.38;3.28;;;;;;;;;;5070834;28;20098;-83
2023/12/27 02:57:15;;;;;;;15.32;3.80;;;;;;;;;;5071515;28;20093;-84
2023/12/27 03:00:18;;;;;;;15.00;3.55;;;;;;;;;;5062200;28;20122;-84
2023/12/27 03:06:55;;;;;;;13.00;4.13;;;;;;;;;;5066473;28;20055;-84
2023/12/27 03:10:08;;;;;;;16.00;3.42;;;;;;;;;;5068862;28;20434;-84
2023/12/27 03:13:38;;;;;;;15.05;4.30;;;;;;;;;;5068281;28;20589;-84
2023/12/27 03:20:12;;;;;;;14.75;4.30;;;;;;;;;;5051464;28;20063;-83
2023/12/27 03:23:24;;;;;;;19.45;4.57;;;;;;;;;;5028369;28;20448;-85
2023/12/27 03:26:44;;;;;;;14.77;5.00;;;;;;;;;;5072434;28;20102;-83
2023/12/27 03:30:04;;;;;;;11.73;4.35;;;;;;;;;;5061518;28;20097;-84
2023/12/27 03:33:11;;;;;;;15.75;4.35;;;;;;;;;;5061230;28;20489;-83
2023/12/27 03:36:15;;;;;;;14.38;4.60;;;;;;;;;;5088661;28;20035;-83
2023/12/27 03:42:19;;;;;;;11.90;4.03;;;;;;;;;;5082594;28;20042;-84
2023/12/27 03:45:28;;;;;;;13.10;4.30;;;;;;;;;;5076797;28;20112;-84
2023/12/27 03:48:17;;;;;;;12.27;3.60;;;;;;;;;;5075371;28;20043;-84
2023/12/27 03:51:03;;;;;;;23.08;4.38;;;;;;;;;;5078079;28;20081;-85
2023/12/27 03:54:04;;;;;;;16.50;4.30;;;;;;;;;;5093692;28;20089;-84
2023/12/27 03:56:56;;;;;;;14.15;3.80;;;;;;;;;;5027355;28;20064;-84
2023/12/27 04:09:45;;;;;;;16.73;4.85;;;;;;;;;;5030552;28;20576;-84
2023/12/27 04:12:56;;;;;;;17.00;4.60;;;;;;;;;;5030997;28;20100;-83
2023/12/27 04:16:05;;;;;;;17.00;4.50;;;;;;;;;;5043902;28;20085;-84
2023/12/27 04:19:25;;;;;;;15.25;4.30;;;;;;;;;;5004217;28;20092;-84
2023/12/27 04:22:47;;;;;;;18.05;4.97;;;;;;;;;;4989944;28;20049;-84
2023/12/27 04:25:33;;;;;;;10.88;5.95;;;;;;;;;;4997163;28;20117;-84
2023/12/27 04:35:30;;;;;;;18.75;5.60;;;;;;;;;;4967260;28;20113;-84
2023/12/27 04:41:41;;;;;;;23.13;5.60;;;;;;;;;;5018341;28;20056;-85
2023/12/27 04:44:34;;;;;;;18.23;6.13;;;;;;;;;;5028575;28;20048;-83
2023/12/27 04:47:37;;;;;;;16.63;5.60;;;;;;;;;;4965505;28;20128;-84
2023/12/27 04:51:16;;;;;;;22.23;6.65;;;;;;;;;;4996939;28;20053;-84
2023/12/27 04:54:11;;;;;;;21.38;6.40;;;;;;;;;;4999212;28;20081;-84
2023/12/27 04:57:18;;;;;;;19.15;6.20;;;;;;;;;;4991291;28;20101;-84
2023/12/27 05:00:23;;;;;;;;;;;;;;;;;;4990445;28;20041;-85
2023/12/27 05:03:38;;;;;;;17.50;5.60;;;;;;;;;;4991119;28;19933;-83
2023/12/27 05:13:38;;;;;;;20.48;5.95;;;;;;;;;;4983650;28;20121;-84
2023/12/27 05:16:55;;;;;;;16.40;5.82;;;;;;;;;;4990682;28;20068;-84
2023/12/27 05:20:11;;;;;;;22.50;6.82;;;;;;;;;;5003360;28;20045;-84
2023/12/27 05:26:48;;;;;;;23.70;8.23;;;;;;;;;;5059201;28;20055;-84
2023/12/27 05:30:01;;;;;;;26.95;8.27;;;;;;;;;;5065936;28;20039;-84
2023/12/27 05:33:24;;;;;;;21.67;8.60;;;;;;;;;;5024872;28;20055;-84
2023/12/27 05:36:33;;;;;;;20.55;7.75;;;;;;;;;;5026748;28;20056;-84
2023/12/27 05:40:12;;;;;;;29.60;7.85;;;;;;;;;;4997748;28;20132;-84
2023/12/27 05:43:22;;;;;;;21.75;7.88;;;;;;;;;;5029268;28;20146;-84
2023/12/27 05:56:22;;;;;;;23.25;7.55;;;;;;;;;;5064770;28;20525;-83
2023/12/27 05:59:31;;;;;;;23.08;7.53;;;;;;;;;;5069771;28;20085;-85
2023/12/27 06:05:40;;;;;;;18.35;7.28;;;;;;;;;;5071278;28;20105;-84
2023/12/27 06:08:54;;;;;;;19.50;7.05;;;;;;;;;;5069752;28;20031;-83
2023/12/27 06:11:46;;;;;;;20.77;7.47;;;;;;;;;;5061761;28;20192;-83
2023/12/27 06:14:33;;;;;;;16.50;6.32;;;;;;;;;;5069685;28;20124;-84
2023/12/27 06:17:42;;;;;;;19.45;6.45;;;;;;;;;;5071331;28;20043;-83
2023/12/27 06:20:27;;;;;;;23.45;6.88;;;;;;;;;;5059307;28;20035;-84
2023/12/27 06:23:31;;;;;;;17.10;5.25;;;;;;;;;;5066362;28;20191;-84
2023/12/27 06:26:24;;;;;;;20.55;6.80;;;;;;;;;;5064542;28;20467;-84
2023/12/27 06:29:32;;;;;;;19.05;6.53;;;;;;;;;;5057182;28;20526;-83
2023/12/27 06:32:42;;;;;;;25.27;6.28;;;;;;;;;;5060644;28;20530;-83
2023/12/27 06:39:01;;;;;;;18.73;6.20;;;;;;;;;;5060293;28;20106;-83
2023/12/27 06:42:20;;;;;;;18.60;5.50;;;;;;;;;;5064266;28;20876;-84
2023/12/27 06:48:36;;;;;;;23.92;6.03;;;;;;;;;;5055108;28;20047;-83
2023/12/27 06:51:37;;;;;;;15.90;5.35;;;;;;;;;;5039666;28;20052;-83
2023/12/27 06:54:36;;;;;;;22.30;5.32;;;;;;;;;;5067578;28;20051;-84
2023/12/27 06:57:43;;;;;;;18.52;6.65;;;;;;;;;;5068300;28;20035;-84
2023/12/27 07:00:38;;;;;;;18.73;5.90;;;;;;;;;;5047345;28;20032;-86
2023/12/27 07:07:29;;;;;;;14.63;5.72;;;;;;;;;;5062625;28;20090;-83
2023/12/27 07:14:19;;;;;;;17.77;6.35;;;;;;;;;;5057120;28;20043;-83
2023/12/27 07:17:06;;;;;;;17.60;5.63;;;;;;;;;;5061186;28;20507;-83
2023/12/27 07:20:30;;;;;;;20.20;6.65;;;;;;;;;;5052739;28;20036;-83
2023/12/27 07:23:44;;;;;;;14.00;4.95;;;;;;;;;;5064305;28;20499;-84
2023/12/27 07:26:38;;;;;;;15.63;5.65;;;;;;;;;;5048277;28;20068;-85
2023/12/27 07:29:31;;;;;;;23.40;5.88;;;;;;;;;;5071925;28;20040;-83
2023/12/27 07:38:49;;;;;;;14.07;4.85;;;;;;;;;;5071906;28;20504;-84
2023/12/27 07:41:42;;;;;;;21.45;4.65;;;;;;;;;;5053057;28;20512;-85
2023/12/27 07:44:37;;;;;;;11.45;3.72;;;;;;;;;;5066786;28;20447;-83
2023/12/27 07:47:22;;;;;;;18.23;4.60;;;;;;;;;;5060434;28;20448;-84
2023/12/27 07:50:07;;;;;;;16.55;5.85;;;;;;;;;;5061394;28;20488;-84
2023/12/27 07:53:00;;;;;;;16.33;4.80;;;;;;;;;;5040648;28;20056;-84
2023/12/27 07:55:52;;;;;;;11.90;3.95;;;;;;;;;;5070557;28;20553;-84
2023/12/27 07:59:07;;;;;;;14.70;4.65;;;;;;;;;;5051108;28;20524;-85
2023/12/27 08:02:11;;;;;;;12.68;4.95;;;;;;;;;;5030004;28;20061;-85
2023/12/27 08:04:57;;;;;;;17.60;5.60;;;;;;;;;;5072005;28;20610;-84
2023/12/27 08:07:44;;;;;;;12.27;5.05;;;;;;;;;;5063341;28;20052;-84
2023/12/27 08:10:28;;;;;;;14.55;4.70;;;;;;;;;;5052004;28;20063;-85
2023/12/27 08:13:14;;;;;;;15.07;4.95;;;;;;;;;;5042471;28;20082;-84
2023/12/27 08:15:59;;;;;;;12.30;5.03;;;;;;;;;;5067897;28;20036;-84
2023/12/27 08:18:44;;;;;;;15.00;4.93;;;;;;;;;;5052114;28;20162;-85
2023/12/27 08:21:29;;;;;;;15.60;5.57;;;;;;;;;;5053473;28;20035;-84
2023/12/27 08:24:15;;;;;;;11.07;5.70;;;;;;;;;;5069973;28;20035;-83
2023/12/27 08:27:02;;;;;;;16.52;5.53;;;;;;;;;;5051190;28;20044;-83
2023/12/27 08:29:56;;;;;;;22.42;5.50;;;;;;;;;;5032603;28;20052;-85
2023/12/27 08:32:57;;;;;;;13.65;5.55;;;;;;;;;;5063562;28;20039;-84
2023/12/27 08:35:44;;;;;;;18.40;5.40;;;;;;;;;;5066912;28;20048;-90
2023/12/27 08:38:29;;;;;;;20.05;5.90;;;;;;;;;;5070803;28;20135;-85
2023/12/27 08:41:15;;;;;;;13.43;6.38;;;;;;;;;;5090835;28;20089;-84
2023/12/27 08:44:02;;;;;;;17.50;5.80;;;;;;;;;;5075159;28;20115;-85
2023/12/27 08:46:49;;;;;;;14.57;6.53;;;;;;;;;;5063556;28;20050;-85
2023/12/27 08:49:35;;;;;;;13.85;5.63;;;;;;;;;;5073727;28;20043;-86
2023/12/27 08:52:20;;;;;;;15.52;5.43;;;;;;;;;;5055464;28;20244;-83
2023/12/27 08:55:06;;;;;;;18.80;6.88;;;;;;;;;;5066532;28;20035;-86
2023/12/27 08:57:51;;;;;;;22.50;6.25;;;;;;;;;;5087774;28;20396;-83
2023/12/27 09:00:36;;;;;;;14.52;5.80;;;;;;;;;;5075134;28;20127;-84
2023/12/27 09:03:55;;;;;;;18.65;5.97;;;;;;;;;;5091504;28;20499;-83
2023/12/27 09:07:16;;;;;;;14.63;5.97;;;;;;;;;;5073026;28;20044;-83
2023/12/27 09:10:10;;;;;;;;;;;;;;;;;;5078276;28;20077;-84
2023/12/27 09:12:57;;;;;;;;;;;;;;;;;;5075948;28;19919;-83
2023/12/27 09:16:08;;;;;;;14.90;5.32;;;;;;;;;;5058981;28;20271;-83
2023/12/27 09:19:12;;;;;;;12.93;5.47;;;;;;;;;;5068725;28;20043;-83
2023/12/27 09:22:19;;;;;;;22.48;6.20;;;;;;;;;;5090637;28;20534;-83
2023/12/27 09:25:24;;;;;;;12.05;5.82;;;;;;;;;;5090629;28;20484;-83
2023/12/27 09:28:12;;;;;;;13.38;5.03;;;;;;;;;;5081327;28;20043;-83
2023/12/27 09:31:13;;;;;;;14.77;5.40;;;;;;;;;;5090319;28;20586;-84
2023/12/27 09:34:03;;;;;;;12.50;5.63;;;;;;;;;;5087975;28;20081;-84
2023/12/27 09:37:12;;;;;;;18.27;6.38;;;;;;;;;;5072491;28;20106;-83
2023/12/27 09:40:09;;;;;;;12.80;5.95;;;;;;;;;;5055040;28;20052;-83
2023/12/27 09:43:19;;;;;;;13.43;5.43;;;;;;;;;;5069527;28;20066;-83
2023/12/27 09:46:24;;;;;;;19.02;6.63;;;;;;;;;;5070173;28;20060;-83
2023/12/27 09:49:10;;;;;;;18.98;6.95;;;;;;;;;;5069338;28;20068;-84
2023/12/27 09:51:59;;;;;;;16.40;5.85;;;;;;;;;;5069997;28;20527;-84
2023/12/27 09:54:54;;;;;;;15.55;6.75;;;;;;;;;;5041159;28;20086;-83
2023/12/27 09:57:41;;;;;;;16.92;6.13;;;;;;;;;;5069959;28;20158;-84
2023/12/27 10:00:58;;;;;;;19.75;7.95;;;;;;;;;;5069696;28;20035;-84
2023/12/27 10:03:56;;;;;;;14.02;7.28;;;;;;;;;;5070432;28;20078;-84
2023/12/27 10:07:06;;;;;;;20.48;6.88;;;;;;;;;;5061749;28;20099;-84
2023/12/27 10:09:59;;;;;;;15.95;6.32;;;;;;;;;;5046596;28;20040;-83
2023/12/27 10:12:51;;;;;;;17.73;6.88;;;;;;;;;;5047752;28;20044;-83
2023/12/27 10:15:56;;;;;;;15.30;6.65;;;;;;;;;;5046423;28;20044;-83
2023/12/27 10:19:09;;;;;;;15.57;6.55;;;;;;;;;;5041994;28;20063;-83
2023/12/27 10:22:06;;;;;;;21.10;6.78;;;;;;;;;;5048159;28;20040;-85
2023/12/27 10:24:51;;;;;;;17.75;6.70;;;;;;;;;;5037382;28;20040;-84
2023/12/27 10:27:44;;;;;;;18.77;6.40;;;;;;;;;;5024023;28;20092;-83
2023/12/27 10:31:07;;;;;;;18.77;7.70;;;;;;;;;;5048007;28;20516;-84
2023/12/27 10:33:53;;;;;;;12.90;6.93;;;;;;;;;;5047584;28;20094;-83
2023/12/27 10:36:39;;;;;;;12.85;6.28;;;;;;;;;;5048595;28;20067;-83
2023/12/27 10:39:24;;;;;;;18.30;6.80;;;;;;;;;;5034750;28;20056;-83
2023/12/27 10:42:16;;;;;;;19.48;7.20;;;;;;;;;;5042688;28;20104;-83
2023/12/27 10:45:05;;;;;;;16.30;6.57;;;;;;;;;;5067386;28;20027;-84
2023/12/27 10:50:58;;;;;;;20.02;7.50;;;;;;;;;;5054758;28;20051;-83
2023/12/27 10:53:50;;;;;;;19.35;7.10;;;;;;;;;;5043744;28;20048;-83
2023/12/27 10:56:39;;;;;;;22.13;8.68;;;;;;;;;;5045777;28;20110;-84
2023/12/27 10:59:32;;;;;;;22.50;7.57;;;;;;;;;;5069828;28;20117;-84
2023/12/27 11:02:18;;;;;;;;;;;;;;;;;;5053232;28;20106;-84
2023/12/27 11:05:05;;;;;;;20.83;7.07;;;;;;;;;;5070742;28;20043;-85
2023/12/27 11:07:56;;;;;;;23.88;8.15;;;;;;;;;;5056491;28;20064;-83
2023/12/27 11:10:40;;;;;;;20.75;8.98;;;;;;;;;;5056722;28;20459;-84
2023/12/27 11:13:27;;;;;;;22.52;8.18;;;;;;;;;;5059346;28;20141;-84
2023/12/27 11:16:14;;;;;;;19.35;8.73;;;;;;;;;;5069473;28;20032;-85
2023/12/27 11:18:58;;;;;;;19.38;8.63;;;;;;;;;;5043020;28;20512;-84
2023/12/27 11:21:45;;;;;;;22.23;10.55;;;;;;;;;;5054445;28;20043;-85
2023/12/27 11:24:38;;;;;;;29.13;9.85;;;;;;;;;;5070576;28;20047;-85
2023/12/27 11:27:24;;;;;;;22.52;8.85;;;;;;;;;;5089653;28;20063;-85
2023/12/27 11:30:12;;;;;;;22.38;9.05;;;;;;;;;;5092141;28;20038;-86
2023/12/27 11:32:57;;;;;;;21.58;10.20;;;;;;;;;;5053855;28;20404;-87
2023/12/27 11:35:42;;;;;;;21.85;9.00;;;;;;;;;;5063870;28;20079;-85
2023/12/27 11:38:27;;;;;;;23.35;9.05;;;;;;;;;;5062853;28;20632;-86
2023/12/27 11:41:14;;;;;;;22.25;9.05;;;;;;;;;;5078204;28;20101;-86
2023/12/27 11:44:03;;;;;;;26.80;10.68;;;;;;;;;;5078024;28;20043;-87
2023/12/27 11:46:48;;;;;;;30.65;12.38;;;;;;;;;;5051929;28;20050;-87
2023/12/27 11:49:34;;;;;;;33.75;12.70;;;;;;;;;;5092469;28;20165;-87
2023/12/27 11:52:20;;;;;;;31.95;12.15;;;;;;;;;;5063229;28;20400;-87
2023/12/27 11:55:18;;;;;;;27.90;12.05;;;;;;;;;;5053353;28;20059;-87
2023/12/27 11:58:04;;;;;;;35.55;13.68;;;;;;;;;;5065086;28;20093;-87
2023/12/27 12:00:49;;;;;;;30.23;13.52;;;;;;;;;;5076943;28;20085;-88
2023/12/27 12:03:37;;;;;;;33.88;13.32;;;;;;;;;;5056278;28;20036;-87
2023/12/27 12:06:42;;;;;;;29.48;13.48;;;;;;;;;;5065766;28;20123;-88
2023/12/27 12:09:30;;;;;;;31.25;13.43;;;;;;;;;;5087463;28;20038;-87
2023/12/27 12:12:20;;;;;;;31.92;14.20;;;;;;;;;;5092419;28;20089;-88
2023/12/27 12:15:05;;;;;;;31.60;12.50;;;;;;;;;;5066454;28;20071;-87
2023/12/27 12:17:50;;;;;;;27.42;14.00;;;;;;;;;;5076524;28;20506;-87
2023/12/27 12:20:35;;;;;;;25.08;11.90;;;;;;;;;;5061900;28;20117;-88
2023/12/27 12:23:21;;;;;;;32.40;13.30;;;;;;;;;;5076229;28;20043;-87
2023/12/27 12:26:07;;;;;;;22.65;11.55;;;;;;;;;;5062415;28;20082;-87
2023/12/27 12:28:59;;;;;;;35.35;14.27;;;;;;;;;;5092124;28;20054;-88
2023/12/27 12:31:45;;;;;;;27.73;13.77;;;;;;;;;;5076038;28;20055;-88
2023/12/27 12:34:31;;;;;;;28.08;13.52;;;;;;;;;;5062250;28;20062;-88
2023/12/27 12:37:19;;;;;;;34.38;12.98;;;;;;;;;;5086139;28;20150;-89
2023/12/27 12:40:26;;;;;;;29.98;13.88;;;;;;;;;;5065469;28;20044;-88
2023/12/27 12:43:12;;;;;;;30.42;14.15;;;;;;;;;;5052505;28;20453;-88
2023/12/27 12:46:01;;;;;;;36.22;14.50;;;;;;;;;;5046300;28;20094;-88
2023/12/27 12:48:45;;;;;;;27.95;16.40;;;;;;;;;;5041289;28;20137;-87
2023/12/27 12:51:52;;;;;;;33.35;16.83;;;;;;;;;;5050524;28;20090;-87
2023/12/27 12:54:43;;;;;;;33.95;15.00;;;;;;;;;;5040426;28;20063;-88
2023/12/27 12:57:29;;;;;;;31.90;15.70;;;;;;;;;;5056652;28;20120;-88
2023/12/27 13:00:21;;;;;;;33.00;15.88;;;;;;;;;;5044842;28;20054;-88
2023/12/27 13:03:08;;;;;;;29.50;15.57;;;;;;;;;;5060131;28;20035;-84
2023/12/27 13:05:53;;;;;;;39.42;16.48;;;;;;;;;;5054034;28;20454;-85
2023/12/27 13:08:37;;;;;;;41.72;17.48;;;;;;;;;;5031505;28;20313;-88
2023/12/27 13:11:23;;;;;;;34.97;16.17;;;;;;;;;;5038827;28;20040;-86
2023/12/27 13:14:08;;;;;;;35.42;18.15;;;;;;;;;;5063200;28;20128;-89
2023/12/27 13:16:52;;;;;;;40.95;17.10;;;;;;;;;;5061451;28;20598;-89
2023/12/27 13:19:39;;;;;;;39.75;17.98;;;;;;;;;;5069567;28;20044;-87
2023/12/27 13:22:24;;;;;;;42.50;18.80;;;;;;;;;;5053308;28;20035;-89
2023/12/27 13:25:12;;;;;;;38.45;19.05;;;;;;;;;;5035926;28;20059;-88
2023/12/27 13:27:57;;;;;;;40.08;19.35;;;;;;;;;;5059805;28;20051;-88
2023/12/27 13:30:41;;;;;;;45.35;20.67;;;;;;;;;;5036542;28;20059;-88
2023/12/27 13:33:27;;;;;;;45.20;21.20;;;;;;;;;;5062540;28;20111;-88
2023/12/27 13:36:12;;;;;;;44.45;22.52;;;;;;;;;;5055534;28;20067;-89
2023/12/27 13:38:56;;;;;;;42.40;20.67;;;;;;;;;;5067394;28;20068;-88
2023/12/27 13:41:41;;;;;;;42.83;21.90;;;;;;;;;;5054044;28;20488;-89
2023/12/27 13:44:26;;;;;;;39.30;20.77;;;;;;;;;;5058661;28;20040;-89
2023/12/27 13:47:10;;;;;;;47.72;22.25;;;;;;;;;;5040373;28;20131;-87
2023/12/27 13:49:55;;;;;;;43.30;21.55;;;;;;;;;;5060643;28;20506;-88
2023/12/27 13:52:42;;;;;;;38.70;20.40;;;;;;;;;;5030852;28;20051;-90
2023/12/27 13:55:28;;;;;;;43.83;21.88;;;;;;;;;;5064856;28;20392;-89
2023/12/27 13:58:13;;;;;;;47.55;22.85;;;;;;;;;;5053311;28;20601;-91
2023/12/27 14:00:57;;;;;;;43.55;21.88;;;;;;;;;;5068783;28;20401;-91
2023/12/27 14:03:42;;;;;;;42.40;21.30;;;;;;;;;;5076154;28;20063;-90
2023/12/27 14:06:26;;;;;;;40.55;21.50;;;;;;;;;;5043069;28;20117;-90
2023/12/27 14:09:14;;;;;;;39.30;21.08;;;;;;;;;;5066852;28;20121;-90
2023/12/27 14:12:01;;;;;;;41.08;22.33;;;;;;;;;;5049714;28;20040;-91
2023/12/27 14:14:46;;;;;;;42.15;21.63;;;;;;;;;;5056740;28;20040;-89
2023/12/27 14:17:30;;;;;;;41.67;22.15;;;;;;;;;;5055042;28;20097;-89
2023/12/27 14:20:15;;;;;;;40.60;20.63;;;;;;;;;;5061755;28;20541;-88
2023/12/27 14:22:59;;;;;;;39.72;23.15;;;;;;;;;;5044268;28;20567;-87
2023/12/27 14:25:44;;;;;;;39.30;21.55;;;;;;;;;;5040149;28;20055;-84
2023/12/27 14:28:31;;;;;;;39.22;20.90;;;;;;;;;;5059036;28;20044;-90
2023/12/27 14:31:20;;;;;;;41.75;21.02;;;;;;;;;;5053683;28;20035;-88
2023/12/27 14:34:07;;;;;;;37.78;19.17;;;;;;;;;;5043938;28;20397;-88
2023/12/27 14:36:53;;;;;;;39.83;19.95;;;;;;;;;;5054413;28;20086;-88
2023/12/27 14:39:38;;;;;;;41.20;19.23;;;;;;;;;;5069195;28;20055;-88
2023/12/27 14:42:22;;;;;;;34.67;18.65;;;;;;;;;;5065937;28;20419;-88
2023/12/27 14:45:10;;;;;;;37.72;18.92;;;;;;;;;;5067474;28;20522;-88
2023/12/27 14:47:55;;;;;;;31.65;18.35;;;;;;;;;;5078372;28;20404;-87
2023/12/27 14:50:42;;;;;;;34.30;17.17;;;;;;;;;;5066540;28;20043;-88
2023/12/27 14:53:31;;;;;;;36.33;18.38;;;;;;;;;;5068892;28;20043;-87
2023/12/27 14:56:16;;;;;;;37.63;19.92;;;;;;;;;;5079225;28;20039;-87
2023/12/27 14:59:00;;;;;;;35.25;17.73;;;;;;;;;;5079621;28;20514;-87
2023/12/27 15:01:46;;;;;;;36.45;19.00;;;;;;;;;;5094183;28;20054;-87
2023/12/27 15:04:33;;;;;;;33.47;17.38;;;;;;;;;;5066564;28;20096;-87
2023/12/27 15:07:18;;;;;;;36.47;17.42;;;;;;;;;;5065051;28;20042;-87
2023/12/27 15:10:06;;;;;;;33.38;16.10;;;;;;;;;;5047330;28;20109;-87
2023/12/27 15:12:51;;;;;;;26.27;15.63;;;;;;;;;;5064898;28;20536;-87
2023/12/27 15:15:36;;;;;;;27.13;15.50;;;;;;;;;;5093723;28;20039;-88
2023/12/27 15:18:21;;;;;;;27.73;14.13;;;;;;;;;;5083537;28;20038;-87
2023/12/27 15:21:15;;;;;;;25.45;14.00;;;;;;;;;;5073351;28;20071;-87
2023/12/27 15:24:13;;;;;;;30.05;14.80;;;;;;;;;;5089246;28;20035;-87
2023/12/27 15:26:57;;;;;;;32.65;14.15;;;;;;;;;;5093509;28;20063;-87
2023/12/27 15:29:42;;;;;;;26.35;13.07;;;;;;;;;;5047371;28;20036;-87
2023/12/27 15:32:27;;;;;;;23.05;13.57;;;;;;;;;;5078672;28;20030;-87
2023/12/27 15:35:14;;;;;;;22.98;11.68;;;;;;;;;;5089713;28;20035;-89
2023/12/27 15:37:59;;;;;;;21.38;11.73;;;;;;;;;;5058556;28;20127;-90
2023/12/27 15:40:44;;;;;;;18.63;10.38;;;;;;;;;;5057218;28;20039;-90
2023/12/27 15:43:31;;;;;;;17.65;10.27;;;;;;;;;;5044245;28;20047;-90
2023/12/27 15:46:16;;;;;;;19.45;9.82;;;;;;;;;;5042998;28;20562;-89
2023/12/27 15:49:01;;;;;;;20.27;9.45;;;;;;;;;;5071645;28;20067;-90
2023/12/27 15:51:46;;;;;;;15.52;9.15;;;;;;;;;;5053463;28;20094;-91
2023/12/27 15:54:31;;;;;;;19.23;9.10;;;;;;;;;;5048516;28;20082;-90
2023/12/27 15:57:15;;;;;;;15.60;8.52;;;;;;;;;;5036584;28;20086;-90
2023/12/27 16:00:00;;;;;;;18.70;8.90;;;;;;;;;;5056403;28;20040;-90
2023/12/27 16:02:45;;;;;;;14.52;9.25;;;;;;;;;;5056431;28;20038;-91
2023/12/27 16:05:31;;;;;;;14.48;7.88;;;;;;;;;;5042798;28;20117;-90
2023/12/27 16:08:16;;;;;;;11.80;7.55;;;;;;;;;;5042976;28;20438;-91
2023/12/27 16:11:02;;;;;;;16.65;8.02;;;;;;;;;;5037461;28;20123;-89
2023/12/27 16:13:47;;;;;;;13.85;6.82;;;;;;;;;;5053513;28;20038;-90
2023/12/27 16:16:33;;;;;;;18.38;8.18;;;;;;;;;;5048067;28;20043;-85
2023/12/27 16:19:18;;;;;;;14.63;6.68;;;;;;;;;;5071242;28;20443;-88
2023/12/27 16:22:02;;;;;;;12.15;7.15;;;;;;;;;;5050942;28;20067;-87
2023/12/27 16:24:47;;;;;;;9.80;6.45;;;;;;;;;;5040029;28;20067;-89
2023/12/27 16:27:32;;;;;;;13.40;6.75;;;;;;;;;;5071434;28;20101;-86
2023/12/27 16:33:35;;;;;;;14.38;6.28;;;;;;;;;;5059148;28;20047;-89
2023/12/27 16:36:38;;;;;;;;;;;;;;;;;;5048767;28;20074;-89
2023/12/27 16:39:39;;;;;;;13.05;5.63;;;;;;;;;;5085760;28;19922;-90
2023/12/27 16:42:24;;;;;;;11.85;6.85;;;;;;;;;;5057201;28;20499;-87
2023/12/27 16:45:28;;;;;;;11.90;5.53;;;;;;;;;;5072059;28;20105;-88
2023/12/27 16:48:22;;;;;;;;;;;;;;;;;;5071652;28;20043;-89
2023/12/27 16:51:08;;;;;;;17.30;6.07;;;;;;;;;;5053075;28;19990;-91
2023/12/27 16:53:54;;;;;;;10.80;5.20;;;;;;;;;;5055778;28;20524;-88
2023/12/27 16:56:40;;;;;;;10.02;5.28;;;;;;;;;;5056023;28;20433;-89
2023/12/27 16:59:26;;;;;;;11.10;5.32;;;;;;;;;;5041687;28;20086;-89
2023/12/27 17:02:11;;;;;;;11.50;5.65;;;;;;;;;;5055129;28;20055;-89
2023/12/27 17:04:55;;;;;;;13.20;5.75;;;;;;;;;;5055411;28;20039;-89
2023/12/27 17:07:40;;;;;;;11.20;5.13;;;;;;;;;;5054559;28;20102;-89
2023/12/27 17:10:25;;;;;;;14.30;5.30;;;;;;;;;;5055321;28;20063;-88
2023/12/27 17:13:10;;;;;;;12.13;5.82;;;;;;;;;;5060990;28;20047;-88
2023/12/27 17:15:56;;;;;;;10.43;4.97;;;;;;;;;;5038856;28;20047;-87
2023/12/27 17:19:06;;;;;;;10.55;5.30;;;;;;;;;;5071808;28;20520;-86
2023/12/27 17:26:05;;;;;;;13.70;5.78;;;;;;;;;;5065617;28;20545;-86
2023/12/27 17:29:20;;;;;;;13.23;4.95;;;;;;;;;;5054086;28;20518;-85
2023/12/27 17:35:58;;;;;;;9.77;4.45;;;;;;;;;;5070363;28;20078;-86
2023/12/27 17:39:10;;;;;;;8.07;5.18;;;;;;;;;;5057490;28;20047;-83
2023/12/27 17:42:04;;;;;;;13.35;4.65;;;;;;;;;;5061515;28;20105;-84
2023/12/27 17:45:16;;;;;;;14.07;4.53;;;;;;;;;;5090152;28;20442;-84
2023/12/27 17:48:07;;;;;;;;;;;;;;;;;;5084656;28;20035;-83
2023/12/27 17:51:35;;;;;;;9.13;4.50;;;;;;;;;;5008150;28;19996;-83
2023/12/27 18:01:08;;;;;;;9.70;4.15;;;;;;;;;;5007738;28;20041;-85
2023/12/27 18:04:13;;;;;;;10.95;4.32;;;;;;;;;;4999021;28;20048;-87
2023/12/27 18:07:16;;;;;;;12.93;4.07;;;;;;;;;;4989298;28;20060;-86
2023/12/27 18:13:08;;;;;;;9.00;4.30;;;;;;;;;;4999364;28;20045;-86
2023/12/27 18:16:04;;;;;;;10.65;3.53;;;;;;;;;;5012329;28;20127;-87
2023/12/27 18:18:51;;;;;;;7.20;3.70;;;;;;;;;;5013048;28;20052;-86
2023/12/27 18:21:37;;;;;;;9.27;3.92;;;;;;;;;;4974932;28;20137;-87
2023/12/27 18:24:49;;;;;;;11.45;3.78;;;;;;;;;;4998751;28;20060;-87
2023/12/27 18:27:46;;;;;;;13.32;4.43;;;;;;;;;;5043651;28;20094;-87
2023/12/27 18:30:34;;;;;;;10.25;3.92;;;;;;;;;;5085808;28;20039;-89
2023/12/27 18:33:38;;;;;;;10.23;3.42;;;;;;;;;;5078931;28;20132;-85
2023/12/27 18:36:44;;;;;;;8.83;3.53;;;;;;;;;;5071016;28;20404;-85
2023/12/27 18:46:52;;;;;;;9.02;2.97;;;;;;;;;;5062032;28;20051;-86
2023/12/27 18:49:40;;;;;;;13.27;3.55;;;;;;;;;;5051502;28;20122;-88
2023/12/27 18:52:25;;;;;;;9.02;3.78;;;;;;;;;;5051599;28;20946;-88
2023/12/27 18:55:11;;;;;;;9.10;4.05;;;;;;;;;;5044061;28;20055;-87
2023/12/27 18:57:56;;;;;;;7.68;2.78;;;;;;;;;;5071542;28;20115;-87
2023/12/27 19:00:40;;;;;;;6.47;2.80;;;;;;;;;;5054412;28;20105;-82
2023/12/27 19:03:25;;;;;;;5.47;2.97;;;;;;;;;;5069585;28;20059;-87
2023/12/27 19:06:34;;;;;;;7.35;3.20;;;;;;;;;;5052734;28;20877;-87
2023/12/27 19:09:39;;;;;;;6.35;3.20;;;;;;;;;;5047118;28;20054;-87
2023/12/27 19:12:53;;;;;;;9.95;4.30;;;;;;;;;;5069297;28;20039;-86
2023/12/27 19:19:16;;;;;;;11.25;3.15;;;;;;;;;;5069029;28;20051;-86
2023/12/27 19:22:26;;;;;;;8.05;2.85;;;;;;;;;;5070267;28;20039;-86
2023/12/27 19:25:46;;;;;;;8.43;3.22;;;;;;;;;;5061683;28;20108;-87
2023/12/27 19:28:32;;;;;;;9.45;2.45;;;;;;;;;;5061077;28;20507;-86
2023/12/27 19:31:17;;;;;;;6.25;2.90;;;;;;;;;;5069199;28;20162;-87
2023/12/27 19:34:02;;;;;;;6.25;2.45;;;;;;;;;;5050195;28;20039;-88
2023/12/27 19:36:48;;;;;;;5.68;2.55;;;;;;;;;;5035685;28;20086;-85
2023/12/27 19:39:35;;;;;;;7.57;2.58;;;;;;;;;;5048412;28;20110;-87